sensor_id;sensor_type;location;lat;lon;timestamp;P1;durP1;ratioP1;P2;durP2;ratioP2
45762;SDS011;37512;52.408;13.356;2023-11-19T00:03:16;9.80;;;6.68;;
45762;SDS011;37512;52.408;13.356;2023-11-19T00:07:19;8.90;;;6.57;;
45762;SDS011;37512;52.408;13.356;2023-11-19T00:11:22;9.57;;;6.68;;
45762;SDS011;37512;52.408;13.356;2023-11-19T00:15:23;9.15;;;6.50;;
45762;SDS011;37512;52.408;13.356;2023-11-19T00:19:25;9.32;;;6.63;;
45762;SDS011;37512;52.408;13.356;2023-11-19T00:23:28;11.20;;;6.45;;
45762;SDS011;37512;52.408;13.356;2023-11-19T00:27:29;9.82;;;6.45;;
45762;SDS011;37512;52.408;13.356;2023-11-19T00:31:31;9.27;;;5.47;;
45762;SDS011;37512;52.408;13.356;2023-11-19T00:35:33;8.82;;;6.35;;
45762;SDS011;37512;52.408;13.356;2023-11-19T00:39:35;9.15;;;6.40;;
45762;SDS011;37512;52.408;13.356;2023-11-19T00:43:36;8.15;;;5.75;;
45762;SDS011;37512;52.408;13.356;2023-11-19T00:47:38;8.32;;;5.85;;
45762;SDS011;37512;52.408;13.356;2023-11-19T00:51:40;11.20;;;6.13;;
45762;SDS011;37512;52.408;13.356;2023-11-19T00:55:41;8.23;;;5.82;;
45762;SDS011;37512;52.408;13.356;2023-11-19T00:59:46;8.57;;;5.68;;
45762;SDS011;37512;52.408;13.356;2023-11-19T01:03:49;8.30;;;5.60;;
45762;SDS011;37512;52.408;13.356;2023-11-19T01:07:51;8.45;;;5.47;;
45762;SDS011;37512;52.408;13.356;2023-11-19T01:11:55;10.50;;;5.90;;
45762;SDS011;37512;52.408;13.356;2023-11-19T01:15:57;7.70;;;6.03;;
45762;SDS011;37512;52.408;13.356;2023-11-19T01:19:59;7.65;;;5.25;;
45762;SDS011;37512;52.408;13.356;2023-11-19T01:24:02;7.43;;;5.40;;
45762;SDS011;37512;52.408;13.356;2023-11-19T01:28:05;8.45;;;6.05;;
45762;SDS011;37512;52.408;13.356;2023-11-19T01:32:07;9.73;;;5.85;;
45762;SDS011;37512;52.408;13.356;2023-11-19T01:36:09;7.15;;;5.53;;
45762;SDS011;37512;52.408;13.356;2023-11-19T01:40:14;8.18;;;5.80;;
45762;SDS011;37512;52.408;13.356;2023-11-19T01:44:16;8.10;;;4.95;;
45762;SDS011;37512;52.408;13.356;2023-11-19T01:48:18;8.23;;;5.03;;
45762;SDS011;37512;52.408;13.356;2023-11-19T01:52:20;8.23;;;6.10;;
45762;SDS011;37512;52.408;13.356;2023-11-19T01:56:22;8.80;;;4.85;;
45762;SDS011;37512;52.408;13.356;2023-11-19T02:00:25;7.72;;;5.03;;
45762;SDS011;37512;52.408;13.356;2023-11-19T02:04:27;7.18;;;4.90;;
45762;SDS011;37512;52.408;13.356;2023-11-19T02:08:31;7.20;;;4.80;;
45762;SDS011;37512;52.408;13.356;2023-11-19T02:12:33;7.95;;;5.22;;
45762;SDS011;37512;52.408;13.356;2023-11-19T02:16:35;9.38;;;5.35;;
45762;SDS011;37512;52.408;13.356;2023-11-19T02:20:37;8.65;;;5.22;;
45762;SDS011;37512;52.408;13.356;2023-11-19T02:24:38;8.05;;;5.25;;
45762;SDS011;37512;52.408;13.356;2023-11-19T02:28:41;7.18;;;4.10;;
45762;SDS011;37512;52.408;13.356;2023-11-19T02:32:44;6.60;;;4.72;;
45762;SDS011;37512;52.408;13.356;2023-11-19T02:36:46;7.07;;;4.82;;
45762;SDS011;37512;52.408;13.356;2023-11-19T02:40:48;6.53;;;4.70;;
45762;SDS011;37512;52.408;13.356;2023-11-19T02:44:50;6.25;;;4.32;;
45762;SDS011;37512;52.408;13.356;2023-11-19T02:48:51;6.00;;;4.43;;
45762;SDS011;37512;52.408;13.356;2023-11-19T02:52:55;7.47;;;4.65;;
45762;SDS011;37512;52.408;13.356;2023-11-19T02:56:58;6.93;;;4.88;;
45762;SDS011;37512;52.408;13.356;2023-11-19T03:01:02;5.53;;;4.00;;
45762;SDS011;37512;52.408;13.356;2023-11-19T03:05:14;5.03;;;3.47;;
45762;SDS011;37512;52.408;13.356;2023-11-19T03:09:16;5.10;;;3.97;;
45762;SDS011;37512;52.408;13.356;2023-11-19T03:13:21;6.32;;;4.05;;
45762;SDS011;37512;52.408;13.356;2023-11-19T03:17:23;6.05;;;4.22;;
45762;SDS011;37512;52.408;13.356;2023-11-19T03:21:29;5.38;;;3.45;;
45762;SDS011;37512;52.408;13.356;2023-11-19T03:25:33;6.78;;;4.18;;
45762;SDS011;37512;52.408;13.356;2023-11-19T03:29:35;5.60;;;3.45;;
45762;SDS011;37512;52.408;13.356;2023-11-19T03:33:37;6.63;;;4.40;;
45762;SDS011;37512;52.408;13.356;2023-11-19T03:37:39;5.50;;;4.15;;
45762;SDS011;37512;52.408;13.356;2023-11-19T03:41:41;7.82;;;4.18;;
45762;SDS011;37512;52.408;13.356;2023-11-19T03:45:43;7.70;;;4.15;;
45762;SDS011;37512;52.408;13.356;2023-11-19T03:49:48;6.78;;;4.65;;
45762;SDS011;37512;52.408;13.356;2023-11-19T03:53:50;4.90;;;4.22;;
45762;SDS011;37512;52.408;13.356;2023-11-19T03:57:52;8.90;;;4.97;;
45762;SDS011;37512;52.408;13.356;2023-11-19T04:01:53;7.35;;;4.97;;
45762;SDS011;37512;52.408;13.356;2023-11-19T04:05:57;7.72;;;4.80;;
45762;SDS011;37512;52.408;13.356;2023-11-19T04:10:00;7.18;;;5.13;;
45762;SDS011;37512;52.408;13.356;2023-11-19T04:14:02;6.68;;;4.85;;
45762;SDS011;37512;52.408;13.356;2023-11-19T04:18:03;8.05;;;4.82;;
45762;SDS011;37512;52.408;13.356;2023-11-19T04:22:05;8.23;;;4.93;;
45762;SDS011;37512;52.408;13.356;2023-11-19T04:26:07;8.95;;;6.10;;
45762;SDS011;37512;52.408;13.356;2023-11-19T04:30:12;8.10;;;5.13;;
45762;SDS011;37512;52.408;13.356;2023-11-19T04:34:13;7.43;;;4.97;;
45762;SDS011;37512;52.408;13.356;2023-11-19T04:38:15;10.70;;;5.60;;
45762;SDS011;37512;52.408;13.356;2023-11-19T04:42:16;11.85;;;6.50;;
45762;SDS011;37512;52.408;13.356;2023-11-19T04:46:18;8.45;;;5.85;;
45762;SDS011;37512;52.408;13.356;2023-11-19T04:50:20;8.40;;;5.93;;
45762;SDS011;37512;52.408;13.356;2023-11-19T04:54:22;10.65;;;6.60;;
45762;SDS011;37512;52.408;13.356;2023-11-19T04:58:24;9.38;;;6.07;;
45762;SDS011;37512;52.408;13.356;2023-11-19T05:02:26;8.65;;;6.10;;
45762;SDS011;37512;52.408;13.356;2023-11-19T05:06:28;10.90;;;6.80;;
45762;SDS011;37512;52.408;13.356;2023-11-19T05:10:30;10.77;;;6.78;;
45762;SDS011;37512;52.408;13.356;2023-11-19T05:14:32;9.55;;;6.25;;
45762;SDS011;37512;52.408;13.356;2023-11-19T05:18:33;8.80;;;6.25;;
45762;SDS011;37512;52.408;13.356;2023-11-19T05:22:35;8.02;;;5.47;;
45762;SDS011;37512;52.408;13.356;2023-11-19T05:26:36;7.90;;;4.97;;
45762;SDS011;37512;52.408;13.356;2023-11-19T05:30:38;14.57;;;6.47;;
45762;SDS011;37512;52.408;13.356;2023-11-19T05:34:41;9.65;;;6.63;;
45762;SDS011;37512;52.408;13.356;2023-11-19T05:38:45;10.00;;;5.93;;
45762;SDS011;37512;52.408;13.356;2023-11-19T05:42:47;8.30;;;5.95;;
45762;SDS011;37512;52.408;13.356;2023-11-19T05:46:48;7.53;;;5.05;;
45762;SDS011;37512;52.408;13.356;2023-11-19T05:50:50;10.88;;;6.80;;
45762;SDS011;37512;52.408;13.356;2023-11-19T05:54:52;9.20;;;6.57;;
45762;SDS011;37512;52.408;13.356;2023-11-19T05:58:54;9.70;;;6.72;;
45762;SDS011;37512;52.408;13.356;2023-11-19T06:02:55;8.57;;;6.38;;
45762;SDS011;37512;52.408;13.356;2023-11-19T06:06:57;9.30;;;6.45;;
45762;SDS011;37512;52.408;13.356;2023-11-19T06:10:59;9.43;;;7.20;;
45762;SDS011;37512;52.408;13.356;2023-11-19T06:15:04;8.35;;;5.43;;
45762;SDS011;37512;52.408;13.356;2023-11-19T06:19:06;9.18;;;6.03;;
45762;SDS011;37512;52.408;13.356;2023-11-19T06:23:08;9.05;;;5.90;;
45762;SDS011;37512;52.408;13.356;2023-11-19T06:27:10;9.32;;;6.72;;
45762;SDS011;37512;52.408;13.356;2023-11-19T06:31:12;10.63;;;6.30;;
45762;SDS011;37512;52.408;13.356;2023-11-19T06:35:17;7.47;;;5.45;;
45762;SDS011;37512;52.408;13.356;2023-11-19T06:39:18;9.60;;;5.97;;
45762;SDS011;37512;52.408;13.356;2023-11-19T06:43:21;10.00;;;6.15;;
45762;SDS011;37512;52.408;13.356;2023-11-19T06:47:26;8.18;;;6.28;;
45762;SDS011;37512;52.408;13.356;2023-11-19T06:51:28;12.57;;;6.18;;
45762;SDS011;37512;52.408;13.356;2023-11-19T06:55:31;8.90;;;6.10;;
45762;SDS011;37512;52.408;13.356;2023-11-19T06:59:33;7.68;;;5.32;;
45762;SDS011;37512;52.408;13.356;2023-11-19T07:03:35;7.97;;;5.78;;
45762;SDS011;37512;52.408;13.356;2023-11-19T07:07:37;9.70;;;6.03;;
45762;SDS011;37512;52.408;13.356;2023-11-19T07:11:39;8.65;;;5.22;;
45762;SDS011;37512;52.408;13.356;2023-11-19T07:15:43;7.90;;;5.50;;
45762;SDS011;37512;52.408;13.356;2023-11-19T07:19:44;10.73;;;5.57;;
45762;SDS011;37512;52.408;13.356;2023-11-19T07:23:46;7.70;;;5.63;;
45762;SDS011;37512;52.408;13.356;2023-11-19T07:27:51;8.45;;;6.10;;
45762;SDS011;37512;52.408;13.356;2023-11-19T07:31:53;9.13;;;6.57;;
45762;SDS011;37512;52.408;13.356;2023-11-19T07:35:56;7.00;;;5.18;;
45762;SDS011;37512;52.408;13.356;2023-11-19T07:39:57;7.53;;;5.63;;
45762;SDS011;37512;52.408;13.356;2023-11-19T07:44:01;7.80;;;5.93;;
45762;SDS011;37512;52.408;13.356;2023-11-19T07:48:02;8.18;;;6.13;;
45762;SDS011;37512;52.408;13.356;2023-11-19T07:52:04;9.27;;;6.05;;
45762;SDS011;37512;52.408;13.356;2023-11-19T07:56:22;8.57;;;6.47;;
45762;SDS011;37512;52.408;13.356;2023-11-19T08:00:25;8.90;;;5.88;;
45762;SDS011;37512;52.408;13.356;2023-11-19T08:04:27;7.80;;;5.55;;
45762;SDS011;37512;52.408;13.356;2023-11-19T08:08:30;6.20;;;4.32;;
45762;SDS011;37512;52.408;13.356;2023-11-19T08:12:34;8.18;;;4.95;;
45762;SDS011;37512;52.408;13.356;2023-11-19T08:16:36;8.25;;;5.57;;
45762;SDS011;37512;52.408;13.356;2023-11-19T08:20:40;5.97;;;4.43;;
45762;SDS011;37512;52.408;13.356;2023-11-19T08:24:44;6.07;;;4.55;;
45762;SDS011;37512;52.408;13.356;2023-11-19T08:28:46;6.38;;;5.15;;
45762;SDS011;37512;52.408;13.356;2023-11-19T08:32:52;5.38;;;4.07;;
45762;SDS011;37512;52.408;13.356;2023-11-19T08:36:54;6.65;;;4.90;;
45762;SDS011;37512;52.408;13.356;2023-11-19T08:40:57;5.28;;;4.30;;
45762;SDS011;37512;52.408;13.356;2023-11-19T08:45:01;4.97;;;4.32;;
45762;SDS011;37512;52.408;13.356;2023-11-19T08:49:03;6.05;;;4.85;;
45762;SDS011;37512;52.408;13.356;2023-11-19T08:53:06;5.97;;;4.78;;
45762;SDS011;37512;52.408;13.356;2023-11-19T08:57:10;5.70;;;4.15;;
45762;SDS011;37512;52.408;13.356;2023-11-19T09:01:11;5.65;;;4.28;;
45762;SDS011;37512;52.408;13.356;2023-11-19T09:05:13;6.25;;;4.60;;
45762;SDS011;37512;52.408;13.356;2023-11-19T09:09:15;6.63;;;4.15;;
45762;SDS011;37512;52.408;13.356;2023-11-19T09:13:17;5.93;;;4.55;;
45762;SDS011;37512;52.408;13.356;2023-11-19T09:17:19;6.68;;;4.15;;
45762;SDS011;37512;52.408;13.356;2023-11-19T09:21:21;6.03;;;4.28;;
45762;SDS011;37512;52.408;13.356;2023-11-19T09:25:27;5.45;;;3.65;;
45762;SDS011;37512;52.408;13.356;2023-11-19T09:29:45;10.73;;;3.63;;
45762;SDS011;37512;52.408;13.356;2023-11-19T09:33:48;4.78;;;3.15;;
45762;SDS011;37512;52.408;13.356;2023-11-19T09:37:50;4.90;;;2.65;;
45762;SDS011;37512;52.408;13.356;2023-11-19T09:41:52;7.32;;;2.60;;
45762;SDS011;37512;52.408;13.356;2023-11-19T09:46:04;2.05;;;1.83;;
45762;SDS011;37512;52.408;13.356;2023-11-19T09:50:14;3.53;;;2.08;;
45762;SDS011;37512;52.408;13.356;2023-11-19T09:54:19;1.75;;;1.13;;
45762;SDS011;37512;52.408;13.356;2023-11-19T09:58:21;3.85;;;1.92;;
45762;SDS011;37512;52.408;13.356;2023-11-19T10:02:26;4.25;;;2.00;;
45762;SDS011;37512;52.408;13.356;2023-11-19T10:06:36;4.72;;;1.60;;
45762;SDS011;37512;52.408;13.356;2023-11-19T10:10:38;5.53;;;1.70;;
45762;SDS011;37512;52.408;13.356;2023-11-19T10:14:40;5.15;;;1.80;;
45762;SDS011;37512;52.408;13.356;2023-11-19T10:18:47;4.80;;;1.90;;
45762;SDS011;37512;52.408;13.356;2023-11-19T10:22:54;8.77;;;2.08;;
45762;SDS011;37512;52.408;13.356;2023-11-19T10:26:57;7.57;;;2.10;;
45762;SDS011;37512;52.408;13.356;2023-11-19T10:31:00;3.30;;;2.33;;
45762;SDS011;37512;52.408;13.356;2023-11-19T10:35:04;3.33;;;1.30;;
45762;SDS011;37512;52.408;13.356;2023-11-19T10:39:07;5.05;;;1.95;;
45762;SDS011;37512;52.408;13.356;2023-11-19T10:43:14;4.50;;;2.08;;
45762;SDS011;37512;52.408;13.356;2023-11-19T10:47:15;5.25;;;1.63;;
45762;SDS011;37512;52.408;13.356;2023-11-19T10:51:20;3.95;;;1.50;;
45762;SDS011;37512;52.408;13.356;2023-11-19T10:55:35;4.63;;;1.85;;
45762;SDS011;37512;52.408;13.356;2023-11-19T10:59:39;5.50;;;1.90;;
45762;SDS011;37512;52.408;13.356;2023-11-19T11:03:42;5.28;;;1.40;;
45762;SDS011;37512;52.408;13.356;2023-11-19T11:07:47;5.13;;;1.58;;
45762;SDS011;37512;52.408;13.356;2023-11-19T11:11:51;5.90;;;2.35;;
45762;SDS011;37512;52.408;13.356;2023-11-19T11:16:06;7.10;;;2.00;;
45762;SDS011;37512;52.408;13.356;2023-11-19T11:20:24;5.85;;;1.73;;
45762;SDS011;37512;52.408;13.356;2023-11-19T11:29:16;7.97;;;2.50;;
45762;SDS011;37512;52.408;13.356;2023-11-19T11:38:07;9.20;;;2.88;;
45762;SDS011;37512;52.408;13.356;2023-11-19T11:50:53;12.57;;;3.97;;
45762;SDS011;37512;52.408;13.356;2023-11-19T11:55:04;9.23;;;3.00;;
45762;SDS011;37512;52.408;13.356;2023-11-19T11:59:20;12.52;;;4.25;;
45762;SDS011;37512;52.408;13.356;2023-11-19T12:03:28;12.70;;;3.20;;
45762;SDS011;37512;52.408;13.356;2023-11-19T12:07:35;12.43;;;3.05;;
45762;SDS011;37512;52.408;13.356;2023-11-19T12:11:46;7.00;;;1.95;;
45762;SDS011;37512;52.408;13.356;2023-11-19T12:20:00;8.50;;;2.55;;
45762;SDS011;37512;52.408;13.356;2023-11-19T12:24:06;13.77;;;3.05;;
45762;SDS011;37512;52.408;13.356;2023-11-19T12:28:12;14.73;;;3.15;;
45762;SDS011;37512;52.408;13.356;2023-11-19T12:32:18;8.68;;;3.42;;
45762;SDS011;37512;52.408;13.356;2023-11-19T12:36:22;13.73;;;3.22;;
45762;SDS011;37512;52.408;13.356;2023-11-19T12:40:28;19.98;;;3.83;;
45762;SDS011;37512;52.408;13.356;2023-11-19T12:44:31;17.10;;;2.95;;
45762;SDS011;37512;52.408;13.356;2023-11-19T12:48:33;11.43;;;1.98;;
45762;SDS011;37512;52.408;13.356;2023-11-19T12:52:36;7.13;;;2.50;;
45762;SDS011;37512;52.408;13.356;2023-11-19T12:56:38;9.15;;;3.15;;
45762;SDS011;37512;52.408;13.356;2023-11-19T13:00:45;16.60;;;3.70;;
45762;SDS011;37512;52.408;13.356;2023-11-19T13:04:57;18.63;;;3.08;;
45762;SDS011;37512;52.408;13.356;2023-11-19T13:08:58;16.27;;;3.80;;
45762;SDS011;37512;52.408;13.356;2023-11-19T13:13:05;16.48;;;3.83;;
45762;SDS011;37512;52.408;13.356;2023-11-19T13:17:14;15.70;;;3.42;;
45762;SDS011;37512;52.408;13.356;2023-11-19T13:21:16;16.48;;;3.97;;
45762;SDS011;37512;52.408;13.356;2023-11-19T13:25:19;14.48;;;3.65;;
45762;SDS011;37512;52.408;13.356;2023-11-19T13:29:22;15.30;;;4.25;;
45762;SDS011;37512;52.408;13.356;2023-11-19T13:33:24;14.05;;;3.88;;
45762;SDS011;37512;52.408;13.356;2023-11-19T13:37:29;16.20;;;4.10;;
45762;SDS011;37512;52.408;13.356;2023-11-19T13:41:31;26.10;;;5.60;;
45762;SDS011;37512;52.408;13.356;2023-11-19T13:45:37;22.55;;;4.82;;
45762;SDS011;37512;52.408;13.356;2023-11-19T13:49:39;18.65;;;4.50;;
45762;SDS011;37512;52.408;13.356;2023-11-19T13:53:41;16.73;;;5.38;;
45762;SDS011;37512;52.408;13.356;2023-11-19T13:57:47;19.05;;;5.05;;
45762;SDS011;37512;52.408;13.356;2023-11-19T14:01:50;17.00;;;4.88;;
45762;SDS011;37512;52.408;13.356;2023-11-19T14:05:53;20.90;;;4.53;;
45762;SDS011;37512;52.408;13.356;2023-11-19T14:09:56;21.23;;;4.70;;
45762;SDS011;37512;52.408;13.356;2023-11-19T14:13:58;9.23;;;2.70;;
45762;SDS011;37512;52.408;13.356;2023-11-19T14:18:00;12.73;;;3.88;;
45762;SDS011;37512;52.408;13.356;2023-11-19T14:22:03;19.55;;;4.70;;
45762;SDS011;37512;52.408;13.356;2023-11-19T14:26:05;16.67;;;3.15;;
45762;SDS011;37512;52.408;13.356;2023-11-19T14:30:08;15.13;;;3.88;;
45762;SDS011;37512;52.408;13.356;2023-11-19T14:34:15;22.23;;;3.63;;
45762;SDS011;37512;52.408;13.356;2023-11-19T14:38:17;24.80;;;3.95;;
45762;SDS011;37512;52.408;13.356;2023-11-19T14:42:19;21.95;;;4.68;;
45762;SDS011;37512;52.408;13.356;2023-11-19T14:46:21;19.27;;;4.72;;
45762;SDS011;37512;52.408;13.356;2023-11-19T14:50:23;15.73;;;4.90;;
45762;SDS011;37512;52.408;13.356;2023-11-19T14:54:25;22.20;;;4.75;;
45762;SDS011;37512;52.408;13.356;2023-11-19T14:58:27;17.23;;;5.20;;
45762;SDS011;37512;52.408;13.356;2023-11-19T15:02:32;19.30;;;5.15;;
45762;SDS011;37512;52.408;13.356;2023-11-19T15:06:34;24.70;;;4.90;;
45762;SDS011;37512;52.408;13.356;2023-11-19T15:10:35;24.00;;;4.53;;
45762;SDS011;37512;52.408;13.356;2023-11-19T15:14:37;14.10;;;4.00;;
45762;SDS011;37512;52.408;13.356;2023-11-19T15:18:39;17.58;;;4.43;;
45762;SDS011;37512;52.408;13.356;2023-11-19T15:22:40;26.30;;;5.90;;
45762;SDS011;37512;52.408;13.356;2023-11-19T15:26:42;22.42;;;5.57;;
45762;SDS011;37512;52.408;13.356;2023-11-19T15:30:44;22.38;;;6.40;;
45762;SDS011;37512;52.408;13.356;2023-11-19T15:34:46;13.52;;;4.40;;
45762;SDS011;37512;52.408;13.356;2023-11-19T15:38:47;20.75;;;6.32;;
45762;SDS011;37512;52.408;13.356;2023-11-19T15:42:55;17.52;;;4.53;;
45762;SDS011;37512;52.408;13.356;2023-11-19T15:46:58;15.10;;;3.95;;
45762;SDS011;37512;52.408;13.356;2023-11-19T15:51:02;18.45;;;4.88;;
45762;SDS011;37512;52.408;13.356;2023-11-19T15:55:05;9.10;;;3.92;;
45762;SDS011;37512;52.408;13.356;2023-11-19T15:59:06;22.65;;;5.97;;
45762;SDS011;37512;52.408;13.356;2023-11-19T16:03:09;19.23;;;5.07;;
45762;SDS011;37512;52.408;13.356;2023-11-19T16:07:11;18.52;;;5.68;;
45762;SDS011;37512;52.408;13.356;2023-11-19T16:11:12;16.92;;;5.30;;
45762;SDS011;37512;52.408;13.356;2023-11-19T16:15:15;18.80;;;4.38;;
45762;SDS011;37512;52.408;13.356;2023-11-19T16:19:37;10.25;;;4.45;;
45762;SDS011;37512;52.408;13.356;2023-11-19T16:23:40;11.80;;;4.50;;
45762;SDS011;37512;52.408;13.356;2023-11-19T16:27:41;28.02;;;5.35;;
45762;SDS011;37512;52.408;13.356;2023-11-19T16:31:45;21.65;;;5.13;;
45762;SDS011;37512;52.408;13.356;2023-11-19T16:35:47;24.27;;;5.60;;
45762;SDS011;37512;52.408;13.356;2023-11-19T16:39:49;18.38;;;4.03;;
45762;SDS011;37512;52.408;13.356;2023-11-19T16:43:50;16.15;;;4.25;;
45762;SDS011;37512;52.408;13.356;2023-11-19T16:47:55;23.33;;;5.15;;
45762;SDS011;37512;52.408;13.356;2023-11-19T16:51:57;16.42;;;5.43;;
45762;SDS011;37512;52.408;13.356;2023-11-19T16:56:02;27.20;;;7.30;;
45762;SDS011;37512;52.408;13.356;2023-11-19T17:00:04;24.60;;;6.07;;
45762;SDS011;37512;52.408;13.356;2023-11-19T17:04:08;19.80;;;5.07;;
45762;SDS011;37512;52.408;13.356;2023-11-19T17:08:10;20.85;;;6.75;;
45762;SDS011;37512;52.408;13.356;2023-11-19T17:12:12;18.88;;;5.40;;
45762;SDS011;37512;52.408;13.356;2023-11-19T17:16:13;24.88;;;6.18;;
45762;SDS011;37512;52.408;13.356;2023-11-19T17:20:16;21.67;;;6.78;;
45762;SDS011;37512;52.408;13.356;2023-11-19T17:24:18;24.58;;;6.18;;
45762;SDS011;37512;52.408;13.356;2023-11-19T17:28:20;27.00;;;6.72;;
45762;SDS011;37512;52.408;13.356;2023-11-19T17:32:22;23.35;;;8.23;;
45762;SDS011;37512;52.408;13.356;2023-11-19T17:36:24;23.30;;;6.25;;
45762;SDS011;37512;52.408;13.356;2023-11-19T17:40:35;21.17;;;6.32;;
45762;SDS011;37512;52.408;13.356;2023-11-19T17:44:37;18.38;;;6.22;;
45762;SDS011;37512;52.408;13.356;2023-11-19T17:48:38;17.52;;;6.20;;
45762;SDS011;37512;52.408;13.356;2023-11-19T17:52:40;26.60;;;6.07;;
45762;SDS011;37512;52.408;13.356;2023-11-19T17:56:43;11.10;;;5.15;;
45762;SDS011;37512;52.408;13.356;2023-11-19T18:00:45;27.13;;;9.05;;
45762;SDS011;37512;52.408;13.356;2023-11-19T18:04:47;22.70;;;7.53;;
45762;SDS011;37512;52.408;13.356;2023-11-19T18:08:51;29.77;;;6.25;;
45762;SDS011;37512;52.408;13.356;2023-11-19T18:12:56;15.93;;;4.75;;
45762;SDS011;37512;52.408;13.356;2023-11-19T18:16:58;15.52;;;5.32;;
45762;SDS011;37512;52.408;13.356;2023-11-19T18:21:02;28.00;;;6.40;;
45762;SDS011;37512;52.408;13.356;2023-11-19T18:25:07;29.30;;;5.75;;
45762;SDS011;37512;52.408;13.356;2023-11-19T18:29:12;34.17;;;7.18;;
45762;SDS011;37512;52.408;13.356;2023-11-19T18:33:18;27.70;;;5.85;;
45762;SDS011;37512;52.408;13.356;2023-11-19T18:37:20;16.73;;;5.00;;
45762;SDS011;37512;52.408;13.356;2023-11-19T18:41:22;20.00;;;6.18;;
45762;SDS011;37512;52.408;13.356;2023-11-19T18:45:24;26.77;;;6.88;;
45762;SDS011;37512;52.408;13.356;2023-11-19T18:49:30;20.63;;;5.75;;
45762;SDS011;37512;52.408;13.356;2023-11-19T18:53:32;27.10;;;9.23;;
45762;SDS011;37512;52.408;13.356;2023-11-19T18:57:36;16.02;;;6.95;;
45762;SDS011;37512;52.408;13.356;2023-11-19T19:01:38;24.23;;;7.47;;
45762;SDS011;37512;52.408;13.356;2023-11-19T19:05:40;21.10;;;8.50;;
45762;SDS011;37512;52.408;13.356;2023-11-19T19:09:42;25.13;;;7.32;;
45762;SDS011;37512;52.408;13.356;2023-11-19T19:13:43;20.27;;;5.25;;
45762;SDS011;37512;52.408;13.356;2023-11-19T19:17:46;18.70;;;5.53;;
45762;SDS011;37512;52.408;13.356;2023-11-19T19:21:51;19.38;;;5.10;;
45762;SDS011;37512;52.408;13.356;2023-11-19T19:25:53;24.08;;;5.10;;
45762;SDS011;37512;52.408;13.356;2023-11-19T19:29:55;20.80;;;5.38;;
45762;SDS011;37512;52.408;13.356;2023-11-19T19:33:57;15.00;;;4.25;;
45762;SDS011;37512;52.408;13.356;2023-11-19T19:37:59;10.77;;;3.72;;
45762;SDS011;37512;52.408;13.356;2023-11-19T19:42:00;16.73;;;6.43;;
45762;SDS011;37512;52.408;13.356;2023-11-19T19:46:04;9.27;;;3.88;;
45762;SDS011;37512;52.408;13.356;2023-11-19T19:50:06;13.57;;;3.90;;
45762;SDS011;37512;52.408;13.356;2023-11-19T19:54:11;20.02;;;4.28;;
45762;SDS011;37512;52.408;13.356;2023-11-19T19:58:13;17.88;;;3.92;;
45762;SDS011;37512;52.408;13.356;2023-11-19T20:02:22;13.55;;;3.38;;
45762;SDS011;37512;52.408;13.356;2023-11-19T20:06:23;11.18;;;3.90;;
45762;SDS011;37512;52.408;13.356;2023-11-19T20:10:26;7.65;;;2.97;;
45762;SDS011;37512;52.408;13.356;2023-11-19T20:14:28;10.27;;;3.53;;
45762;SDS011;37512;52.408;13.356;2023-11-19T20:18:30;9.45;;;3.90;;
45762;SDS011;37512;52.408;13.356;2023-11-19T20:22:34;12.80;;;4.40;;
45762;SDS011;37512;52.408;13.356;2023-11-19T20:26:36;8.55;;;3.90;;
45762;SDS011;37512;52.408;13.356;2023-11-19T20:30:39;15.48;;;3.72;;
45762;SDS011;37512;52.408;13.356;2023-11-19T20:34:40;13.52;;;3.40;;
45762;SDS011;37512;52.408;13.356;2023-11-19T20:38:43;15.57;;;3.55;;
45762;SDS011;37512;52.408;13.356;2023-11-19T20:42:45;9.93;;;3.20;;
45762;SDS011;37512;52.408;13.356;2023-11-19T20:46:46;8.55;;;3.53;;
45762;SDS011;37512;52.408;13.356;2023-11-19T20:50:48;16.10;;;4.18;;
45762;SDS011;37512;52.408;13.356;2023-11-19T20:54:51;19.60;;;3.20;;
45762;SDS011;37512;52.408;13.356;2023-11-19T20:58:53;10.93;;;3.53;;
45762;SDS011;37512;52.408;13.356;2023-11-19T21:02:55;13.25;;;3.28;;
45762;SDS011;37512;52.408;13.356;2023-11-19T21:06:59;10.45;;;3.45;;
45762;SDS011;37512;52.408;13.356;2023-11-19T21:11:01;11.10;;;4.60;;
45762;SDS011;37512;52.408;13.356;2023-11-19T21:15:04;11.50;;;3.15;;
45762;SDS011;37512;52.408;13.356;2023-11-19T21:19:06;15.73;;;3.95;;
45762;SDS011;37512;52.408;13.356;2023-11-19T21:23:10;14.80;;;3.55;;
45762;SDS011;37512;52.408;13.356;2023-11-19T21:27:11;25.08;;;4.63;;
45762;SDS011;37512;52.408;13.356;2023-11-19T21:31:14;21.55;;;4.05;;
45762;SDS011;37512;52.408;13.356;2023-11-19T21:35:19;12.18;;;4.15;;
45762;SDS011;37512;52.408;13.356;2023-11-19T21:39:20;11.43;;;3.38;;
45762;SDS011;37512;52.408;13.356;2023-11-19T21:43:22;19.50;;;3.97;;
45762;SDS011;37512;52.408;13.356;2023-11-19T21:47:24;19.98;;;3.72;;
45762;SDS011;37512;52.408;13.356;2023-11-19T21:51:26;12.90;;;2.92;;
45762;SDS011;37512;52.408;13.356;2023-11-19T21:55:28;12.05;;;3.42;;
45762;SDS011;37512;52.408;13.356;2023-11-19T21:59:33;12.32;;;3.40;;
45762;SDS011;37512;52.408;13.356;2023-11-19T22:03:35;13.85;;;3.40;;
45762;SDS011;37512;52.408;13.356;2023-11-19T22:07:38;12.98;;;3.78;;
45762;SDS011;37512;52.408;13.356;2023-11-19T22:11:40;11.20;;;3.42;;
45762;SDS011;37512;52.408;13.356;2023-11-19T22:15:42;10.25;;;3.10;;
45762;SDS011;37512;52.408;13.356;2023-11-19T22:19:44;8.95;;;2.35;;
45762;SDS011;37512;52.408;13.356;2023-11-19T22:23:47;11.65;;;3.97;;
45762;SDS011;37512;52.408;13.356;2023-11-19T22:27:49;7.00;;;1.70;;
45762;SDS011;37512;52.408;13.356;2023-11-19T22:31:51;13.77;;;3.03;;
45762;SDS011;37512;52.408;13.356;2023-11-19T22:35:56;9.88;;;3.45;;
45762;SDS011;37512;52.408;13.356;2023-11-19T22:39:58;9.23;;;2.92;;
45762;SDS011;37512;52.408;13.356;2023-11-19T22:44:07;11.35;;;3.25;;
45762;SDS011;37512;52.408;13.356;2023-11-19T22:48:09;14.48;;;3.35;;
45762;SDS011;37512;52.408;13.356;2023-11-19T22:52:16;15.68;;;3.83;;
45762;SDS011;37512;52.408;13.356;2023-11-19T22:56:19;11.48;;;3.05;;
45762;SDS011;37512;52.408;13.356;2023-11-19T23:00:21;11.07;;;3.38;;
45762;SDS011;37512;52.408;13.356;2023-11-19T23:04:29;13.73;;;3.75;;
45762;SDS011;37512;52.408;13.356;2023-11-19T23:08:31;7.35;;;3.13;;
45762;SDS011;37512;52.408;13.356;2023-11-19T23:12:33;16.60;;;3.60;;
45762;SDS011;37512;52.408;13.356;2023-11-19T23:16:36;11.77;;;3.75;;
45762;SDS011;37512;52.408;13.356;2023-11-19T23:20:39;10.50;;;3.13;;
45762;SDS011;37512;52.408;13.356;2023-11-19T23:24:42;10.55;;;3.28;;
45762;SDS011;37512;52.408;13.356;2023-11-19T23:28:43;18.05;;;3.70;;
45762;SDS011;37512;52.408;13.356;2023-11-19T23:32:51;9.18;;;3.17;;
45762;SDS011;37512;52.408;13.356;2023-11-19T23:36:53;11.02;;;3.13;;
45762;SDS011;37512;52.408;13.356;2023-11-19T23:40:57;13.27;;;3.80;;
45762;SDS011;37512;52.408;13.356;2023-11-19T23:45:00;11.10;;;3.45;;
45762;SDS011;37512;52.408;13.356;2023-11-19T23:49:04;13.50;;;3.45;;
45762;SDS011;37512;52.408;13.356;2023-11-19T23:53:06;5.90;;;2.60;;
45762;SDS011;37512;52.408;13.356;2023-11-19T23:57:12;10.50;;;2.83;;
